Kill Devil Hills, North Carolina
Current Conditions -  °F | °C
As of 7:35 PM on Tuesday 25 Nov 2014 (Local Time) from KFFA Reporting Station
Light Rain Light Rain  
Wind Chill: 56°   Ceiling: 900
Heat Index: 56°   Visibility: 10mi
Dew Point: 53°   Wind: 5mph
Humidity: 90%   Direction: 10°N
Pressure: 30.09"   Gusts: NA
Location:  36.03°N, 75.68°W
Report Text: KFFA 260035Z AUTO 01004KT 10SM -RA BKN009 OVC012 13/12 A3009 RMK AO2 T01310115
Loading
Personal Weather Stations






























Interactive Weather Map New forecast layout! Learn more

10-Day Weather Forecast

Advertisements
Track Severe Weather on mobile